Time;durP1;ratioP1;P1;durP2;ratioP2;P2;SDS_P1;SDS_P2;PMS_P1;PMS_P2;Temp;Humidity;BMP_temperature;BMP_pressure;BME280_temperature;BME280_humidity;BME280_pressure;Samples;Min_cycle;Max_cycle;Signal;HPM_P1;HPM_P2
2022/11/13 00:01:40;;;;;;;45.10;28.75;;;5.30;99.90;;;;;;6145013;23;20009;-91
2022/11/13 00:04:06;;;;;;;46.42;30.63;;;5.40;99.90;;;;;;6145690;23;20047;-92
2022/11/13 00:06:31;;;;;;;47.40;29.25;;;5.50;99.90;;;;;;6145532;23;20020;-92
2022/11/13 00:08:57;;;;;;;51.47;32.50;;;5.40;99.90;;;;;;6146171;23;20049;-92
2022/11/13 00:11:23;;;;;;;57.42;33.75;;;5.60;99.90;;;;;;6146497;23;20052;-93
2022/11/13 00:13:49;;;;;;;45.70;31.33;;;5.70;99.90;;;;;;6145599;23;20017;-92
2022/11/13 00:16:19;;;;;;;51.72;32.90;;;5.70;99.90;;;;;;6145777;23;20017;-92
2022/11/13 00:18:46;;;;;;;53.22;32.72;;;5.80;99.90;;;;;;6145161;23;20502;-93
2022/11/13 00:21:24;;;;;;;48.92;31.75;;;5.70;99.90;;;;;;6145299;23;20023;-92
2022/11/13 00:23:50;;;;;;;62.33;36.13;;;5.70;99.90;;;;;;6146406;23;20013;-93
2022/11/13 00:26:19;;;;;;;55.40;33.92;;;5.80;99.90;;;;;;6146246;23;20049;-92
2022/11/13 00:28:50;;;;;;;46.67;31.23;;;5.80;99.90;;;;;;6146322;23;20021;-93
2022/11/13 00:31:16;;;;;;;49.53;32.50;;;5.80;99.90;;;;;;6146498;23;20463;-92
2022/11/13 00:33:42;;;;;;;57.63;35.17;;;5.90;99.90;;;;;;6144403;23;20088;-92
2022/11/13 00:36:12;;;;;;;56.25;36.15;;;6.00;99.90;;;;;;6144946;23;20021;-92
2022/11/13 00:38:38;;;;;;;51.90;34.03;;;6.00;99.90;;;;;;6146008;23;20515;-94
2022/11/13 00:41:04;;;;;;;69.57;39.65;;;5.90;99.90;;;;;;6146314;23;20108;-91
2022/11/13 00:43:29;;;;;;;58.75;36.28;;;5.90;99.90;;;;;;6145816;23;20013;-93
2022/11/13 00:45:55;;;;;;;65.75;38.45;;;6.00;99.90;;;;;;6145780;23;20017;-92
2022/11/13 00:48:21;;;;;;;66.30;38.40;;;6.00;99.90;;;;;;6144241;23;20017;-92
2022/11/13 00:50:47;;;;;;;54.55;36.22;;;6.20;99.90;;;;;;6144660;23;20013;-89
2022/11/13 00:53:13;;;;;;;62.47;38.45;;;6.20;99.90;;;;;;6146069;23;20185;-92
2022/11/13 00:55:39;;;;;;;62.17;38.88;;;6.20;99.90;;;;;;6121385;23;20104;-92
2022/11/13 00:58:04;;;;;;;73.20;40.78;;;6.30;99.90;;;;;;6121416;23;20013;-93
2022/11/13 01:00:31;;;;;;;72.03;41.75;;;6.30;99.90;;;;;;6121381;23;20036;-92
2022/11/13 01:02:58;;;;;;;59.42;37.00;;;6.30;99.90;;;;;;6120430;23;20013;-92
2022/11/13 01:05:24;;;;;;;55.13;35.22;;;6.20;99.90;;;;;;6120528;23;20020;-94
2022/11/13 01:07:49;;;;;;;48.45;33.90;;;6.20;99.90;;;;;;6145800;23;20013;-92
2022/11/13 01:10:19;;;;;;;57.67;34.95;;;6.30;99.90;;;;;;6120714;23;20024;-92
2022/11/13 01:12:44;;;;;;;51.80;34.70;;;6.20;99.90;;;;;;6120627;23;20017;-91
2022/11/13 01:15:10;;;;;;;61.63;38.33;;;6.30;99.90;;;;;;6121372;23;20013;-92
2022/11/13 01:17:36;;;;;;;54.85;36.60;;;6.30;99.90;;;;;;6118997;23;20317;-92
2022/11/13 01:20:03;;;;;;;59.70;37.90;;;6.40;99.90;;;;;;6120572;23;20013;-91
2022/11/13 01:22:28;;;;;;;57.70;38.15;;;6.50;99.90;;;;;;6145262;23;20013;-92
2022/11/13 01:24:57;;;;;;;62.38;37.33;;;6.40;99.90;;;;;;6121508;23;20019;-91
2022/11/13 01:27:23;;;;;;;59.35;38.42;;;6.50;99.90;;;;;;6121551;23;20026;-91
2022/11/13 01:29:48;;;;;;;60.20;38.08;;;6.50;99.90;;;;;;6121209;23;20024;-93
2022/11/13 01:32:14;;;;;;;60.35;39.38;;;6.60;99.90;;;;;;6144464;23;20217;-93
2022/11/13 01:34:40;;;;;;;61.03;39.67;;;6.60;99.90;;;;;;6120362;23;20021;-92
2022/11/13 01:37:06;;;;;;;64.35;39.20;;;6.60;99.90;;;;;;6120895;23;20066;-93
2022/11/13 01:39:31;;;;;;;64.57;39.70;;;6.60;99.90;;;;;;6121062;23;20096;-94
2022/11/13 01:41:57;;;;;;;60.83;36.90;;;6.70;99.90;;;;;;6122039;23;20017;-92
2022/11/13 01:44:47;;;;;;;59.83;38.35;;;6.60;99.90;;;;;;6120253;23;20027;-93
2022/11/13 01:47:13;;;;;;;55.95;37.42;;;6.70;99.90;;;;;;6119684;23;20021;-92
2022/11/13 01:49:40;;;;;;;55.55;37.55;;;6.70;99.90;;;;;;6120294;23;20017;-92
2022/11/13 01:52:11;;;;;;;49.70;35.33;;;6.70;99.90;;;;;;6121155;23;20020;-93
2022/11/13 01:54:42;;;;;;;57.92;36.95;;;6.70;99.90;;;;;;6134916;23;20085;-93
2022/11/13 01:57:09;;;;;;;53.50;36.40;;;6.70;99.90;;;;;;6145446;23;20024;-92
2022/11/13 01:59:45;;;;;;;57.72;36.63;;;6.70;99.90;;;;;;6145501;23;20020;-92
2022/11/13 02:02:11;;;;;;;56.60;34.63;;;6.70;99.90;;;;;;6143236;23;20522;-93
2022/11/13 02:04:37;;;;;;;52.78;35.20;;;6.70;99.90;;;;;;6144420;23;20067;-93
2022/11/13 02:07:06;;;;;;;52.38;35.22;;;6.70;99.90;;;;;;6145634;23;20021;-91
2022/11/13 02:09:41;;;;;;;56.17;35.58;;;6.70;99.90;;;;;;6145671;23;20292;-95
2022/11/13 02:12:10;;;;;;;48.13;33.67;;;6.80;99.90;;;;;;6145593;23;20153;-92
2022/11/13 02:14:39;;;;;;;54.20;35.20;;;6.70;99.90;;;;;;6145344;23;20025;-94
2022/11/13 02:17:08;;;;;;;53.30;34.38;;;6.80;99.90;;;;;;6144317;23;20025;-94
2022/11/13 02:19:38;;;;;;;50.15;34.55;;;6.70;99.90;;;;;;6146343;23;20013;-92
2022/11/13 02:22:21;;;;;;;55.05;35.63;;;6.70;99.90;;;;;;6146330;23;20372;-92
2022/11/13 02:24:47;;;;;;;50.90;32.75;;;6.70;99.90;;;;;;6147019;23;20013;-93
2022/11/13 02:27:25;;;;;;;44.72;32.20;;;6.80;99.90;;;;;;6146626;23;20021;-93
2022/11/13 02:29:50;;;;;;;48.15;32.05;;;6.70;99.90;;;;;;6146277;23;20070;-92
2022/11/13 02:32:16;;;;;;;48.90;31.65;;;6.80;99.90;;;;;;6145155;23;20013;-92
2022/11/13 02:34:41;;;;;;;47.83;30.55;;;6.70;99.90;;;;;;6145698;23;20017;-93
2022/11/13 02:37:07;;;;;;;46.60;31.20;;;6.70;99.90;;;;;;6146476;23;20450;-93
2022/11/13 02:39:33;;;;;;;45.40;30.33;;;6.70;99.90;;;;;;6146368;23;20009;-92
2022/11/13 02:41:58;;;;;;;48.28;30.27;;;6.70;99.90;;;;;;6146214;23;20182;-92
2022/11/13 02:44:24;;;;;;;44.85;30.75;;;6.70;99.90;;;;;;6146320;23;20321;-92
2022/11/13 02:46:50;;;;;;;41.38;29.25;;;6.70;99.90;;;;;;6145482;23;20017;-92
2022/11/13 02:49:15;;;;;;;44.58;30.52;;;6.80;99.90;;;;;;6145449;23;20017;-93
2022/11/13 02:51:41;;;;;;;44.13;29.20;;;6.70;99.90;;;;;;6146003;23;20047;-93
2022/11/13 02:54:06;;;;;;;39.95;28.30;;;6.80;99.90;;;;;;6146445;23;20021;-94
2022/11/13 02:56:32;;;;;;;39.13;29.08;;;6.80;99.90;;;;;;6146595;23;20028;-92
2022/11/13 02:58:58;;;;;;;39.25;26.48;;;6.70;99.90;;;;;;6146880;23;20015;-93
2022/11/13 03:01:23;;;;;;;39.33;27.10;;;6.70;99.90;;;;;;6146195;23;20077;-93
2022/11/13 03:03:49;;;;;;;36.65;26.67;;;6.70;99.90;;;;;;6143248;23;20017;-94
2022/11/13 03:06:18;;;;;;;35.90;25.45;;;6.60;99.90;;;;;;6170527;22;20422;-91
2022/11/13 03:08:43;;;;;;;36.72;26.27;;;6.50;99.90;;;;;;6146131;23;20039;-93
2022/11/13 03:11:10;;;;;;;39.67;26.77;;;6.40;99.90;;;;;;6146992;23;20346;-92
2022/11/13 03:13:36;;;;;;;37.22;26.05;;;6.60;99.90;;;;;;6146581;23;20032;-92
2022/11/13 03:16:08;;;;;;;39.35;26.80;;;6.50;99.90;;;;;;6146441;23;20052;-92
2022/11/13 03:18:33;;;;;;;39.05;29.05;;;6.50;99.90;;;;;;6145042;23;20017;-93
2022/11/13 03:21:06;;;;;;;39.42;28.42;;;6.50;99.90;;;;;;6145188;23;20017;-93
2022/11/13 03:23:31;;;;;;;41.72;28.35;;;6.50;99.90;;;;;;6170874;23;20245;-92
2022/11/13 03:26:02;;;;;;;39.78;27.25;;;6.60;99.90;;;;;;6147234;23;20017;-92
2022/11/13 03:28:28;;;;;;;39.90;27.65;;;6.60;99.90;;;;;;6146023;23;20125;-92
2022/11/13 03:30:54;;;;;;;37.45;27.48;;;6.60;99.90;;;;;;6146793;23;20374;-92
2022/11/13 03:33:19;;;;;;;40.90;28.10;;;6.70;99.90;;;;;;6144692;23;20051;-94
2022/11/13 03:35:46;;;;;;;38.60;26.80;;;6.70;99.90;;;;;;6146670;23;20024;-92
2022/11/13 03:38:12;;;;;;;39.70;27.67;;;6.60;99.90;;;;;;6147058;23;20466;-93
2022/11/13 03:40:38;;;;;;;38.33;26.90;;;6.60;99.90;;;;;;6147141;23;20013;-94
2022/11/13 03:43:03;;;;;;;35.75;25.80;;;6.60;99.90;;;;;;6146574;23;20013;-93
2022/11/13 03:45:29;;;;;;;35.80;25.40;;;6.60;99.90;;;;;;6147104;23;20013;-92
2022/11/13 03:47:54;;;;;;;37.47;24.85;;;6.50;99.90;;;;;;6145465;23;20018;-94
2022/11/13 03:50:20;;;;;;;35.78;25.63;;;6.40;99.90;;;;;;6146197;23;20048;-92
2022/11/13 03:52:46;;;;;;;37.38;25.35;;;6.40;99.90;;;;;;6146938;23;20017;-90
2022/11/13 03:55:11;;;;;;;35.10;25.75;;;6.40;99.90;;;;;;6146251;23;20017;-93
2022/11/13 03:57:37;;;;;;;38.72;26.63;;;6.40;99.90;;;;;;6146007;23;20021;-92
2022/11/13 04:00:04;;;;;;;39.15;26.58;;;6.40;99.90;;;;;;6146075;23;20017;-92
2022/11/13 04:02:30;;;;;;;36.90;27.02;;;6.30;99.90;;;;;;6145084;23;20017;-93
2022/11/13 04:04:56;;;;;;;37.28;25.45;;;6.40;99.90;;;;;;6145316;23;20028;-93
2022/11/13 04:07:21;;;;;;;37.78;26.98;;;6.40;99.90;;;;;;6170750;22;20017;-92
2022/11/13 04:09:47;;;;;;;38.97;27.65;;;6.60;99.90;;;;;;6146271;23;20031;-92
2022/11/13 04:12:12;;;;;;;37.97;27.27;;;6.40;99.90;;;;;;6146574;23;20017;-93
2022/11/13 04:14:38;;;;;;;36.47;27.17;;;6.50;99.90;;;;;;6146492;23;20052;-93
2022/11/13 04:17:04;;;;;;;39.72;27.52;;;6.40;99.90;;;;;;6144563;23;20013;-93
2022/11/13 04:19:29;;;;;;;39.17;27.85;;;6.50;99.90;;;;;;6145462;23;20010;-92
2022/11/13 04:21:55;;;;;;;38.20;27.52;;;6.40;99.90;;;;;;6146885;23;20081;-92
2022/11/13 04:24:20;;;;;;;40.55;27.83;;;6.50;99.90;;;;;;6145809;23;20052;-93
2022/11/13 04:26:46;;;;;;;41.70;27.83;;;6.40;99.90;;;;;;6147178;23;20032;-91
2022/11/13 04:29:12;;;;;;;40.92;29.02;;;6.40;99.90;;;;;;6146526;23;20144;-90
2022/11/13 04:31:37;;;;;;;39.75;27.85;;;6.30;99.90;;;;;;6146044;23;20024;-93
2022/11/13 04:34:03;;;;;;;38.60;26.65;;;6.40;99.90;;;;;;6146226;23;20114;-94
2022/11/13 04:36:29;;;;;;;41.90;27.73;;;6.30;99.90;;;;;;6146179;23;20017;-92
2022/11/13 04:38:54;;;;;;;40.80;28.10;;;6.30;99.90;;;;;;6146622;23;20090;-93
2022/11/13 04:44:04;;;;;;;37.15;26.30;;;6.40;99.90;;;;;;6171809;23;20090;-92
2022/11/13 04:46:30;;;;;;;36.35;26.55;;;6.30;99.90;;;;;;6146609;23;20021;-92
2022/11/13 04:48:55;;;;;;;39.80;28.65;;;6.30;99.90;;;;;;6145459;23;20012;-94
2022/11/13 04:51:22;;;;;;;34.88;26.10;;;6.20;99.90;;;;;;6145994;23;20252;-94
2022/11/13 04:53:47;;;;;;;38.80;26.40;;;5.90;99.90;;;;;;6194806;22;20032;-89
2022/11/13 04:56:13;;;;;;;39.70;27.63;;;6.00;99.90;;;;;;6144531;23;20021;-87
2022/11/13 04:58:38;;;;;;;41.30;27.70;;;6.10;99.90;;;;;;6144128;23;20096;-89
2022/11/13 05:01:04;;;;;;;35.83;26.80;;;6.20;99.90;;;;;;6143774;23;20095;-87
2022/11/13 05:03:30;;;;;;;42.08;28.92;;;6.10;99.90;;;;;;6141623;23;20095;-89
2022/11/13 05:06:08;;;;;;;39.42;28.00;;;6.20;99.90;;;;;;6143723;23;20457;-89
2022/11/13 05:08:34;;;;;;;36.90;26.70;;;6.10;99.90;;;;;;6143778;23;20032;-89
2022/11/13 05:11:00;;;;;;;37.40;26.95;;;6.10;99.90;;;;;;6168883;23;20473;-89
2022/11/13 05:13:28;;;;;;;39.58;27.15;;;6.00;99.90;;;;;;6144446;23;20099;-89
2022/11/13 05:16:08;;;;;;;39.47;26.98;;;6.10;99.90;;;;;;6168783;23;20024;-86
2022/11/13 05:18:36;;;;;;;34.15;24.75;;;5.90;99.90;;;;;;6142657;23;20024;-88
2022/11/13 05:21:02;;;;;;;44.03;28.05;;;5.90;99.90;;;;;;6168280;23;20372;-89
2022/11/13 05:23:30;;;;;;;35.42;25.88;;;6.00;99.90;;;;;;6144235;23;20009;-88
2022/11/13 05:26:08;;;;;;;42.45;28.25;;;5.90;99.90;;;;;;6144486;23;20509;-89
2022/11/13 05:28:34;;;;;;;40.72;26.75;;;5.80;99.90;;;;;;6143871;23;20021;-90
2022/11/13 05:31:12;;;;;;;42.03;29.00;;;5.90;99.90;;;;;;6144559;23;20327;-88
2022/11/13 05:33:40;;;;;;;38.63;26.02;;;5.80;99.90;;;;;;6142394;23;20039;-88
2022/11/13 05:36:14;;;;;;;36.05;26.30;;;5.80;99.90;;;;;;6167835;23;20108;-88
2022/11/13 05:38:40;;;;;;;38.90;26.17;;;5.80;99.90;;;;;;6168807;23;20013;-87
2022/11/13 05:41:09;;;;;;;37.63;25.60;;;5.90;99.90;;;;;;6144117;23;20020;-88
2022/11/13 05:43:35;;;;;;;39.47;26.58;;;5.80;99.90;;;;;;6143877;23;20059;-88
2022/11/13 05:46:07;;;;;;;35.67;24.85;;;5.70;99.90;;;;;;6143887;23;20012;-87
2022/11/13 05:48:34;;;;;;;36.20;25.88;;;5.80;99.90;;;;;;6141949;23;20021;-88
2022/11/13 05:51:11;;;;;;;41.15;25.63;;;5.70;99.90;;;;;;6142450;23;20349;-89
2022/11/13 05:53:37;;;;;;;35.92;25.17;;;5.70;99.90;;;;;;6144252;23;20243;-89
2022/11/13 05:56:09;;;;;;;37.22;25.50;;;5.70;99.90;;;;;;6145328;23;20481;-88
2022/11/13 05:58:36;;;;;;;37.92;25.63;;;5.80;99.90;;;;;;6275168;22;20328;-90
2022/11/13 06:01:06;;;;;;;32.20;21.25;;;5.60;99.90;;;;;;6145331;23;20084;-88
2022/11/13 06:03:32;;;;;;;31.20;20.80;;;5.60;99.90;;;;;;6143017;23;20017;-87
2022/11/13 06:05:58;;;;;;;27.63;19.48;;;5.70;99.90;;;;;;6169518;23;20017;-88
2022/11/13 06:08:24;;;;;;;30.98;20.23;;;5.50;99.90;;;;;;6145041;23;20013;-88
2022/11/13 06:10:50;;;;;;;28.85;19.85;;;5.60;99.90;;;;;;6145647;23;20634;-89
2022/11/13 06:13:15;;;;;;;29.73;19.60;;;5.60;99.90;;;;;;6145900;23;20354;-90
2022/11/13 06:15:41;;;;;;;26.17;19.23;;;5.50;99.90;;;;;;6145029;23;20017;-89
2022/11/13 06:18:07;;;;;;;27.35;19.40;;;5.40;99.90;;;;;;6143975;23;20028;-89
2022/11/13 06:20:36;;;;;;;28.73;20.42;;;5.40;99.90;;;;;;6169703;23;20017;-89
2022/11/13 06:23:01;;;;;;;30.08;20.33;;;5.40;99.90;;;;;;6145643;23;20017;-89
2022/11/13 06:25:30;;;;;;;27.05;18.05;;;5.40;99.90;;;;;;6170439;23;20020;-87
2022/11/13 06:27:56;;;;;;;30.83;19.15;;;5.20;99.90;;;;;;6145384;23;20119;-88
2022/11/13 06:30:21;;;;;;;26.63;18.65;;;5.30;99.90;;;;;;6145699;23;20045;-89
2022/11/13 06:32:52;;;;;;;28.27;19.90;;;5.10;99.90;;;;;;6143815;23;20082;-87
2022/11/13 06:35:18;;;;;;;29.63;19.10;;;5.20;99.90;;;;;;6145381;23;20032;-90
2022/11/13 06:37:44;;;;;;;30.25;20.08;;;5.10;99.90;;;;;;6170617;23;20029;-88
2022/11/13 06:40:10;;;;;;;25.67;17.73;;;5.00;99.90;;;;;;6170566;23;20009;-89
2022/11/13 06:42:36;;;;;;;27.88;19.75;;;4.90;99.90;;;;;;6144485;23;20028;-90
2022/11/13 06:45:01;;;;;;;26.90;18.70;;;4.90;99.90;;;;;;6145342;23;20322;-88
2022/11/13 06:47:27;;;;;;;25.80;18.52;;;5.10;99.90;;;;;;6143475;22;20366;-89
2022/11/13 06:49:53;;;;;;;28.00;19.85;;;5.10;99.90;;;;;;6144473;23;20016;-89
2022/11/13 06:52:19;;;;;;;24.27;17.92;;;4.90;99.90;;;;;;6145258;23;20527;-87
2022/11/13 06:54:44;;;;;;;25.58;17.88;;;5.00;99.90;;;;;;6145190;23;20125;-88
2022/11/13 06:57:10;;;;;;;27.45;19.50;;;4.90;99.90;;;;;;6170066;23;20104;-89
2022/11/13 06:59:36;;;;;;;26.23;18.10;;;5.00;99.90;;;;;;6144556;23;20032;-88
2022/11/13 07:02:02;;;;;;;26.85;18.08;;;4.90;99.90;;;;;;6143935;23;20028;-87
2022/11/13 07:04:28;;;;;;;26.38;18.67;;;4.90;99.90;;;;;;6144107;23;20399;-89
2022/11/13 07:06:53;;;;;;;26.73;18.95;;;5.00;99.90;;;;;;6145407;22;20185;-89
2022/11/13 07:09:19;;;;;;;28.77;18.30;;;4.90;99.90;;;;;;6145567;23;20017;-88
2022/11/13 07:11:45;;;;;;;28.80;19.13;;;4.90;99.90;;;;;;6145258;23;20074;-89
2022/11/13 07:14:11;;;;;;;25.77;18.60;;;4.70;99.90;;;;;;6145048;23;20088;-89
2022/11/13 07:16:37;;;;;;;27.30;19.45;;;5.00;99.90;;;;;;6144284;23;20125;-88
2022/11/13 07:19:03;;;;;;;25.25;18.60;;;5.00;99.90;;;;;;6143926;23;20462;-89
2022/11/13 07:21:29;;;;;;;26.42;18.60;;;5.00;99.90;;;;;;6144783;23;20013;-88
2022/11/13 07:23:55;;;;;;;26.85;18.25;;;5.00;99.90;;;;;;6169749;23;20629;-88
2022/11/13 07:26:21;;;;;;;29.17;19.92;;;4.80;99.90;;;;;;6277487;22;20078;-92
2022/11/13 07:28:47;;;;;;;29.40;20.98;;;4.90;99.90;;;;;;6145726;23;20473;-94
2022/11/13 07:31:14;;;;;;;27.90;19.95;;;5.00;99.90;;;;;;6147005;23;20507;-92
2022/11/13 07:33:40;;;;;;;30.50;21.85;;;5.00;99.90;;;;;;6144841;23;20021;-92
2022/11/13 07:36:07;;;;;;;29.13;20.17;;;5.00;99.90;;;;;;6145510;23;20018;-92
2022/11/13 07:38:32;;;;;;;28.38;19.23;;;5.10;99.90;;;;;;6145840;23;20013;-91
2022/11/13 07:40:59;;;;;;;32.03;20.00;;;5.00;99.90;;;;;;6146209;23;20023;-92
2022/11/13 07:43:24;;;;;;;31.55;19.60;;;5.10;99.90;;;;;;6170440;22;20008;-92
2022/11/13 07:45:53;;;;;;;28.60;19.48;;;5.30;99.90;;;;;;6146867;23;20016;-92
2022/11/13 07:48:20;;;;;;;26.58;20.35;;;5.20;99.90;;;;;;6144480;23;20048;-93
2022/11/13 07:50:46;;;;;;;27.80;19.50;;;5.30;99.90;;;;;;6145481;23;20074;-92
2022/11/13 07:53:12;;;;;;;30.08;20.05;;;5.20;99.90;;;;;;6170421;23;20021;-93
2022/11/13 07:55:38;;;;;;;28.65;20.67;;;5.40;99.90;;;;;;6122217;23;20110;-93
2022/11/13 07:58:04;;;;;;;33.75;21.38;;;5.30;99.90;;;;;;6122625;23;20013;-93
2022/11/13 08:00:32;;;;;;;24.50;18.48;;;5.40;99.90;;;;;;6122173;23;20066;-92
2022/11/13 08:03:04;;;;;;;29.98;20.08;;;5.60;99.90;;;;;;6120379;23;20017;-92
2022/11/13 08:05:30;;;;;;;29.73;21.35;;;5.50;99.90;;;;;;6122049;23;20454;-92
2022/11/13 08:07:55;;;;;;;29.73;19.88;;;5.80;99.90;;;;;;6121838;23;20092;-91
2022/11/13 08:10:21;;;;;;;27.55;20.48;;;5.70;99.90;;;;;;6122257;23;20013;-93
2022/11/13 08:12:47;;;;;;;29.15;20.98;;;5.90;99.90;;;;;;6121841;23;20009;-92
2022/11/13 08:15:13;;;;;;;27.30;19.65;;;5.80;99.90;;;;;;6121941;23;20571;-93
2022/11/13 08:17:39;;;;;;;26.70;19.65;;;5.90;99.90;;;;;;6119947;23;20024;-91
2022/11/13 08:20:06;;;;;;;26.75;19.02;;;6.00;99.90;;;;;;6120859;23;20145;-92
2022/11/13 08:22:32;;;;;;;25.35;19.60;;;6.20;99.90;;;;;;6121112;23;20017;-93
2022/11/13 08:24:57;;;;;;;28.83;19.23;;;6.30;99.90;;;;;;6121895;23;20013;-93
2022/11/13 08:27:23;;;;;;;26.98;19.30;;;6.20;99.90;;;;;;6121940;23;20017;-92
2022/11/13 08:29:50;;;;;;;26.90;17.73;;;6.40;99.90;;;;;;6121570;23;20017;-91
2022/11/13 08:32:18;;;;;;;24.83;19.40;;;6.40;99.90;;;;;;6120075;23;20111;-92
2022/11/13 08:34:43;;;;;;;24.38;18.63;;;6.50;99.90;;;;;;6145373;22;20021;-92
2022/11/13 08:37:09;;;;;;;26.48;19.17;;;6.60;99.90;;;;;;6145433;23;20063;-92
2022/11/13 08:39:35;;;;;;;27.25;18.95;;;6.70;99.90;;;;;;6121526;23;20024;-93
2022/11/13 08:42:02;;;;;;;24.50;18.42;;;6.70;99.90;;;;;;6121101;23;20092;-92
2022/11/13 08:44:28;;;;;;;22.10;18.15;;;6.90;99.90;;;;;;6121157;23;20096;-94
2022/11/13 08:46:54;;;;;;;27.80;19.70;;;7.00;99.90;;;;;;6120165;23;20414;-93
2022/11/13 08:49:19;;;;;;;24.25;18.05;;;7.00;99.90;;;;;;6120664;23;20016;-94
2022/11/13 08:51:45;;;;;;;23.23;17.75;;;7.10;99.90;;;;;;6121475;23;20091;-92
2022/11/13 08:54:10;;;;;;;25.02;17.77;;;7.10;99.90;;;;;;6129741;23;20109;-93
2022/11/13 08:56:36;;;;;;;21.67;17.23;;;7.30;99.90;;;;;;6146021;23;20017;-93
2022/11/13 08:59:02;;;;;;;21.40;17.52;;;7.30;99.90;;;;;;6145896;23;20009;-92
2022/11/13 09:01:28;;;;;;;21.20;16.63;;;7.40;99.90;;;;;;6145266;22;20039;-93
2022/11/13 09:03:53;;;;;;;20.08;16.65;;;7.50;99.90;;;;;;6144733;23;20533;-93
2022/11/13 09:06:19;;;;;;;22.15;16.35;;;7.50;99.90;;;;;;6145914;23;20096;-93
2022/11/13 09:08:45;;;;;;;21.63;16.20;;;7.60;99.90;;;;;;6145997;23;20020;-94
2022/11/13 09:11:10;;;;;;;21.70;16.08;;;7.60;99.90;;;;;;6146210;23;20021;-92
2022/11/13 09:13:36;;;;;;;20.48;15.65;;;7.60;99.90;;;;;;6145894;23;20078;-92
2022/11/13 09:16:02;;;;;;;19.10;15.60;;;7.70;99.90;;;;;;6145856;23;20017;-92
2022/11/13 09:18:28;;;;;;;20.38;15.52;;;7.80;99.90;;;;;;6144537;23;20438;-93
2022/11/13 09:20:55;;;;;;;20.48;15.43;;;7.80;99.90;;;;;;6145332;23;20017;-93
2022/11/13 09:23:20;;;;;;;21.48;16.08;;;7.80;99.90;;;;;;6145774;23;20054;-91
2022/11/13 09:25:46;;;;;;;25.48;17.60;;;7.90;99.90;;;;;;6145070;23;20078;-94
2022/11/13 09:28:12;;;;;;;21.67;15.25;;;8.00;99.90;;;;;;6145168;23;20398;-93
2022/11/13 09:30:39;;;;;;;19.55;14.65;;;8.00;99.90;;;;;;6170202;23;20009;-93
2022/11/13 09:33:06;;;;;;;18.98;14.93;;;8.00;99.90;;;;;;6168397;23;20100;-95
2022/11/13 09:35:38;;;;;;;19.55;14.95;;;8.10;99.90;;;;;;6167980;23;20108;-89
2022/11/13 09:38:10;;;;;;;18.98;14.63;;;8.10;99.90;;;;;;6168549;23;20073;-88
2022/11/13 09:40:47;;;;;;;19.00;14.38;;;8.30;99.90;;;;;;6143394;23;20019;-88
2022/11/13 09:43:41;;;;;;;18.58;15.05;;;8.30;99.90;;;;;;6144608;23;20553;-88
2022/11/13 09:46:28;;;;;;;23.15;14.90;;;8.40;99.90;;;;;;6143551;23;20020;-88
2022/11/13 09:49:22;;;;;;;23.40;14.93;;;8.40;99.90;;;;;;6167316;23;20319;-89
2022/11/13 09:51:55;;;;;;;18.50;13.95;;;8.50;99.90;;;;;;6143820;23;20100;-89
2022/11/13 09:54:21;;;;;;;18.60;13.90;;;8.60;99.90;;;;;;6143679;23;20043;-88
2022/11/13 09:57:02;;;;;;;18.27;14.43;;;8.70;99.90;;;;;;6144427;23;20513;-89
2022/11/13 09:59:41;;;;;;;17.58;13.57;;;8.80;99.90;;;;;;6168753;23;20013;-88
2022/11/13 10:02:06;;;;;;;19.52;14.35;;;8.80;99.90;;;;;;6142604;23;20014;-89
2022/11/13 10:04:52;;;;;;;19.23;15.07;;;8.90;99.90;;;;;;6143127;23;20078;-90
2022/11/13 10:07:29;;;;;;;20.08;15.52;;;9.00;99.90;;;;;;6169206;23;20017;-89
2022/11/13 10:10:01;;;;;;;18.58;14.38;;;8.90;99.90;;;;;;6143939;23;20021;-88
2022/11/13 10:12:30;;;;;;;18.35;14.52;;;9.10;99.90;;;;;;6143473;23;20021;-89
2022/11/13 10:15:01;;;;;;;17.45;14.55;;;9.20;99.90;;;;;;6168827;23;20408;-88
2022/11/13 10:17:51;;;;;;;17.25;14.07;;;9.20;99.90;;;;;;6141682;23;20017;-89
2022/11/13 10:20:30;;;;;;;16.50;14.30;;;9.40;99.90;;;;;;6143160;23;20087;-89
2022/11/13 10:23:08;;;;;;;18.88;13.85;;;9.50;99.90;;;;;;6143617;23;20017;-89
2022/11/13 10:25:36;;;;;;;15.70;13.40;;;9.70;99.90;;;;;;6142844;23;20074;-89
2022/11/13 10:28:19;;;;;;;17.67;13.75;;;9.60;99.90;;;;;;6143280;23;20020;-88
2022/11/13 10:30:45;;;;;;;16.02;12.98;;;9.60;99.90;;;;;;6143051;23;20116;-88
2022/11/13 10:33:16;;;;;;;14.57;11.88;;;9.80;99.90;;;;;;6140404;23;20320;-88
2022/11/13 10:35:48;;;;;;;15.85;11.43;;;9.80;99.90;;;;;;6142294;23;20017;-87
2022/11/13 10:38:22;;;;;;;16.13;11.13;;;9.80;99.90;;;;;;6142920;23;20058;-88
2022/11/13 10:40:48;;;;;;;17.38;12.60;;;9.80;99.90;;;;;;6144421;23;20024;-89
2022/11/13 10:43:23;;;;;;;16.70;13.02;;;9.80;99.90;;;;;;6144343;22;20017;-87
2022/11/13 10:46:00;;;;;;;16.60;13.00;;;9.80;99.90;;;;;;6169152;23;20017;-88
2022/11/13 10:48:33;;;;;;;19.48;15.05;;;9.80;99.90;;;;;;6166620;23;20017;-88
2022/11/13 10:51:18;;;;;;;16.83;13.57;;;9.80;99.90;;;;;;6142914;23;20024;-89
2022/11/13 10:53:43;;;;;;;16.95;13.88;;;9.80;99.90;;;;;;6143678;23;20029;-87
2022/11/13 10:56:21;;;;;;;16.20;13.50;;;9.90;99.90;;;;;;6143861;23;20027;-87
2022/11/13 10:59:10;;;;;;;17.70;13.88;;;10.00;99.90;;;;;;6168192;23;20045;-87
2022/11/13 11:01:36;;;;;;;17.83;14.23;;;10.00;99.90;;;;;;6142786;23;20017;-87
2022/11/13 11:04:10;;;;;;;20.70;14.63;;;10.00;99.90;;;;;;6142519;23;20058;-86
2022/11/13 11:06:39;;;;;;;18.85;14.52;;;10.20;99.90;;;;;;6167971;23;20029;-87
2022/11/13 11:09:24;;;;;;;18.90;13.80;;;10.20;99.90;;;;;;6143526;23;20017;-87
2022/11/13 11:12:20;;;;;;;16.38;13.38;;;10.30;99.90;;;;;;6143606;23;20017;-87
2022/11/13 11:14:56;;;;;;;17.13;13.60;;;10.30;99.90;;;;;;6168077;23;20017;-87
2022/11/13 11:17:46;;;;;;;17.75;14.13;;;10.50;99.90;;;;;;6166035;23;20017;-88
2022/11/13 11:20:47;;;;;;;15.10;12.80;;;10.60;99.90;;;;;;6171159;22;20013;-87
2022/11/13 11:23:32;;;;;;;15.55;12.73;;;10.70;99.90;;;;;;6142909;23;20013;-87
2022/11/13 11:26:02;;;;;;;15.07;12.40;;;10.80;99.90;;;;;;6142955;23;20024;-87
2022/11/13 11:28:38;;;;;;;17.30;13.13;;;10.90;99.90;;;;;;6142844;23;20028;-87
2022/11/13 11:31:30;;;;;;;15.40;13.00;;;11.00;99.90;;;;;;6142651;23;20070;-87
2022/11/13 11:34:11;;;;;;;15.80;12.57;;;11.10;99.90;;;;;;6141057;23;20025;-87
2022/11/13 11:36:58;;;;;;;15.02;12.98;;;11.20;99.90;;;;;;6142716;23;20050;-86
2022/11/13 11:39:46;;;;;;;16.35;12.48;;;11.40;99.90;;;;;;6142668;23;20253;-87
2022/11/13 11:42:38;;;;;;;16.42;12.13;;;11.60;99.90;;;;;;6142402;23;20066;-87
2022/11/13 11:45:15;;;;;;;15.10;11.80;;;11.60;99.90;;;;;;6143107;23;20013;-87
2022/11/13 11:47:40;;;;;;;14.95;12.50;;;11.70;99.90;;;;;;6165216;23;20017;-87
2022/11/13 11:50:13;;;;;;;14.52;11.73;;;11.80;99.90;;;;;;6141410;23;20100;-86
2022/11/13 11:52:48;;;;;;;17.13;12.88;;;12.00;99.90;;;;;;6142871;23;20580;-87
2022/11/13 11:55:53;;;;;;;15.88;12.40;;;12.00;99.90;;;;;;6142926;23;20034;-87
2022/11/13 11:58:39;;;;;;;16.20;12.52;;;12.20;99.90;;;;;;6174378;23;20552;-87
2022/11/13 12:01:16;;;;;;;15.98;12.20;;;12.30;99.90;;;;;;6200202;23;20083;-87
2022/11/13 12:03:58;;;;;;;17.60;12.88;;;12.30;99.90;;;;;;6165891;23;20383;-86
2022/11/13 12:06:49;;;;;;;17.38;12.60;;;12.40;99.90;;;;;;6142021;23;20078;-87
2022/11/13 12:09:30;;;;;;;14.82;12.10;;;12.50;99.90;;;;;;6142383;23;20319;-87
2022/11/13 12:12:19;;;;;;;15.07;11.23;;;12.50;99.90;;;;;;6142890;23;20431;-87
2022/11/13 12:14:57;;;;;;;13.63;11.18;;;12.50;99.90;;;;;;6143120;23;20021;-87
2022/11/13 12:17:38;;;;;;;13.02;10.85;;;12.60;99.90;;;;;;6140132;23;20017;-86
2022/11/13 12:20:32;;;;;;;14.02;11.30;;;12.60;99.90;;;;;;6141467;23;20024;-86
2022/11/13 12:23:07;;;;;;;13.98;10.85;;;12.60;99.90;;;;;;6142345;23;20012;-86
2022/11/13 12:26:05;;;;;;;11.68;10.02;;;12.60;99.90;;;;;;6142785;23;20189;-87
2022/11/13 12:28:45;;;;;;;13.38;10.82;;;12.50;99.90;;;;;;6141573;23;20013;-87
2022/11/13 12:31:20;;;;;;;13.02;10.32;;;12.50;99.90;;;;;;6143108;23;20044;-86
2022/11/13 12:33:57;;;;;;;12.88;10.75;;;12.50;99.90;;;;;;6165210;23;20071;-87
2022/11/13 12:36:26;;;;;;;13.90;11.18;;;12.50;99.90;;;;;;6166173;23;20146;-86
2022/11/13 12:39:14;;;;;;;12.15;10.60;;;12.50;99.90;;;;;;6142704;23;20026;-87
2022/11/13 12:41:57;;;;;;;13.30;10.15;;;12.50;99.90;;;;;;6142638;23;20021;-86
2022/11/13 12:44:24;;;;;;;12.85;9.75;;;12.40;99.90;;;;;;6142288;23;20024;-87
2022/11/13 12:46:51;;;;;;;12.52;9.25;;;12.50;99.90;;;;;;6141425;23;20525;-87
2022/11/13 12:49:23;;;;;;;13.05;9.93;;;12.50;99.90;;;;;;6165824;23;20021;-86
2022/11/13 12:52:01;;;;;;;11.82;9.25;;;12.40;99.90;;;;;;6167168;23;20183;-87